createdAt,value
2022-11-13T00:00:33.756Z,20.21
2022-11-13T00:07:14.360Z,20.17
2022-11-13T00:13:38.860Z,20.15
2022-11-13T00:20:15.528Z,20.13
2022-11-13T00:26:47.061Z,20.11
2022-11-13T00:33:31.945Z,20.1
2022-11-13T00:40:01.214Z,20.12
2022-11-13T00:46:26.714Z,20.15
2022-11-13T00:52:54.458Z,20.1
2022-11-13T00:59:20.670Z,20.11
2022-11-13T01:05:46.986Z,20.11
2022-11-13T01:12:12.388Z,20.1
2022-11-13T01:18:38.733Z,20.08
2022-11-13T01:25:08.832Z,20.06
2022-11-13T01:31:34.851Z,20.06
2022-11-13T01:37:58.122Z,20.09
2022-11-13T01:44:29.404Z,20.04
2022-11-13T01:51:16.952Z,20.04
2022-11-13T01:57:59.734Z,20.05
2022-11-13T02:04:36.843Z,20.07
2022-11-13T02:11:11.849Z,20.02
2022-11-13T02:17:47.953Z,20.05
2022-11-13T02:24:54.980Z,20.02
2022-11-13T02:31:28.827Z,20.02
2022-11-13T02:38:09.266Z,20.03
2022-11-13T02:44:34.785Z,20
2022-11-13T02:51:09.959Z,19.96
2022-11-13T02:57:42.716Z,19.95
2022-11-13T03:04:18.808Z,19.95
2022-11-13T03:10:51.126Z,19.95
2022-11-13T03:17:21.767Z,19.95
2022-11-13T03:23:46.799Z,19.98
2022-11-13T03:30:09.938Z,19.92
2022-11-13T03:36:37.343Z,19.93
2022-11-13T03:43:02.703Z,19.92
2022-11-13T03:49:35.020Z,19.89
2022-11-13T03:55:56.816Z,19.93
2022-11-13T04:02:19.855Z,19.93
2022-11-13T04:08:39.894Z,19.93
2022-11-13T04:15:05.295Z,19.92
2022-11-13T04:21:27.616Z,19.93
2022-11-13T04:27:48.161Z,19.91
2022-11-13T04:34:18.742Z,19.92
2022-11-13T04:40:39.280Z,19.9
2022-11-13T04:47:06.941Z,19.9
2022-11-13T04:53:26.834Z,19.87
2022-11-13T04:59:49.817Z,19.88
2022-11-13T05:06:12.001Z,19.87
2022-11-13T05:12:36.929Z,20.2
2022-11-13T05:19:01.249Z,20.94
2022-11-13T05:25:30.943Z,21.28
2022-11-13T05:31:52.945Z,21.63
2022-11-13T05:38:14.788Z,21.65
2022-11-13T05:44:44.230Z,21.73
2022-11-13T05:51:04.907Z,21.7
2022-11-13T05:57:30.876Z,21.64
2022-11-13T06:03:55.946Z,21.65
2022-11-13T06:10:25.510Z,21.63
2022-11-13T06:16:57.431Z,21.55
2022-11-13T06:23:27.086Z,21.47
2022-11-13T06:29:54.878Z,21.36
2022-11-13T06:36:16.883Z,21.19
2022-11-13T06:42:45.087Z,21.18
2022-11-13T06:49:16.879Z,21.04
2022-11-13T06:55:43.041Z,21.01
2022-11-13T07:02:10.613Z,20.91
2022-11-13T07:08:34.899Z,20.83
2022-11-13T07:15:10.182Z,20.78
2022-11-13T07:21:30.939Z,20.82
2022-11-13T07:27:50.811Z,20.76
2022-11-13T07:34:30.991Z,20.78
2022-11-13T07:40:57.581Z,20.82
2022-11-13T07:47:30.444Z,20.92
2022-11-13T07:53:55.047Z,20.95
2022-11-13T08:00:19.033Z,21
2022-11-13T08:06:50.466Z,21.09
2022-11-13T08:13:14.913Z,21.11
2022-11-13T08:19:47.466Z,21.08
2022-11-13T08:26:14.946Z,21.13
2022-11-13T08:32:41.977Z,21.15
2022-11-13T08:39:06.097Z,21.15
2022-11-13T08:45:35.443Z,21.17
2022-11-13T08:52:01.979Z,21.11
2022-11-13T08:58:27.449Z,21.02
2022-11-13T09:04:59.996Z,21.06
2022-11-13T09:11:27.970Z,20.94
2022-11-13T09:17:53.078Z,20.84
2022-11-13T09:24:21.046Z,20.83
2022-11-13T09:30:48.010Z,20.82
2022-11-13T09:37:27.086Z,20.78
2022-11-13T09:44:05.874Z,20.87
2022-11-13T09:51:08.409Z,20.83
2022-11-13T09:58:11.104Z,20.89
2022-11-13T10:05:06.983Z,20.89
2022-11-13T10:12:16.110Z,20.96
2022-11-13T10:19:15.515Z,20.95
2022-11-13T10:26:14.996Z,20.95
2022-11-13T10:32:54.030Z,20.91
2022-11-13T10:39:52.146Z,21
2022-11-13T10:46:50.053Z,21
2022-11-13T10:53:33.079Z,20.96
2022-11-13T11:00:23.975Z,20.97
2022-11-13T11:07:19.985Z,20.98
2022-11-13T11:14:01.091Z,21.01
2022-11-13T11:21:00.171Z,21.04
2022-11-13T11:27:57.976Z,21.02
2022-11-13T11:35:01.179Z,20.99
2022-11-13T11:42:20.963Z,20.97
2022-11-13T11:49:09.964Z,21
2022-11-13T11:56:08.501Z,21.07
2022-11-13T12:03:18.396Z,21.09
2022-11-13T12:10:42.869Z,20.98
2022-11-13T12:17:40.213Z,21.09
2022-11-13T12:24:54.505Z,21.03
2022-11-13T12:32:08.188Z,21.06
2022-11-13T12:39:08.351Z,21.06
2022-11-13T12:46:06.871Z,21.1
2022-11-13T12:52:57.353Z,21.21
2022-11-13T13:00:06.071Z,21.24
2022-11-13T13:07:19.380Z,21.19
2022-11-13T13:14:19.331Z,21.19
2022-11-13T13:21:11.357Z,21.29
2022-11-13T13:28:04.885Z,21.51
2022-11-13T13:35:07.216Z,21.88
2022-11-13T13:42:10.786Z,21.92
2022-11-13T13:49:15.788Z,22.11
2022-11-13T13:56:08.591Z,22.27
2022-11-13T14:02:57.271Z,22.3
2022-11-13T14:09:44.275Z,22.37
2022-11-13T14:16:34.042Z,22.38
2022-11-13T14:23:30.248Z,22.32
2022-11-13T14:30:26.934Z,22.07
2022-11-13T14:37:13.172Z,21.88
2022-11-13T14:44:11.291Z,21.74
2022-11-13T14:51:27.779Z,21.67
2022-11-13T14:58:27.378Z,21.69
2022-11-13T15:05:17.256Z,21.58
2022-11-13T15:11:57.462Z,21.6
2022-11-13T15:18:34.341Z,21.65
2022-11-13T15:25:16.300Z,21.54
2022-11-13T15:31:54.957Z,21.57
2022-11-13T15:38:33.634Z,21.48
2022-11-13T15:45:11.392Z,21.35
2022-11-13T15:51:40.681Z,21.32
2022-11-13T15:58:13.184Z,21.28
2022-11-13T16:04:57.533Z,21.29
2022-11-13T16:11:34.443Z,21.34
2022-11-13T16:18:10.222Z,21.34
2022-11-13T16:24:50.641Z,21.34
2022-11-13T16:31:33.386Z,21.3
2022-11-13T16:38:12.666Z,21.3
2022-11-13T16:44:50.308Z,21.27
2022-11-13T16:51:25.977Z,21.22
2022-11-13T16:57:52.571Z,21.1
2022-11-13T17:04:20.346Z,21.03
2022-11-13T17:11:00.404Z,21.06
2022-11-13T17:17:31.713Z,21.01
2022-11-13T17:24:08.502Z,21.04
2022-11-13T17:30:35.852Z,20.99
2022-11-13T17:37:11.308Z,20.97
2022-11-13T17:43:40.106Z,20.93
2022-11-13T17:50:07.991Z,20.94
2022-11-13T17:56:52.854Z,21.01
2022-11-13T18:03:21.644Z,20.93
2022-11-13T18:09:57.737Z,20.9
2022-11-13T18:16:32.129Z,20.95
2022-11-13T18:23:05.411Z,20.92
2022-11-13T18:29:35.510Z,20.83
2022-11-13T18:36:11.385Z,20.84
2022-11-13T18:42:41.151Z,20.84
2022-11-13T18:49:15.646Z,20.81
2022-11-13T18:55:45.992Z,20.84
2022-11-13T19:02:28.170Z,20.93
2022-11-13T19:09:06.566Z,20.87
2022-11-13T19:15:46.889Z,20.79
2022-11-13T19:22:30.531Z,20.69
2022-11-13T19:29:08.636Z,20.75
2022-11-13T19:35:35.359Z,20.64
2022-11-13T19:42:05.848Z,20.59
2022-11-13T19:48:27.463Z,20.53
2022-11-13T19:54:54.509Z,20.5
2022-11-13T20:01:26.560Z,20.5
2022-11-13T20:08:02.455Z,20.49
2022-11-13T20:14:25.944Z,20.48
2022-11-13T20:20:57.936Z,20.49
2022-11-13T20:27:27.511Z,20.43
2022-11-13T20:33:59.367Z,20.34
2022-11-13T20:40:20.426Z,20.33
2022-11-13T20:46:54.549Z,20.25
2022-11-13T20:53:19.543Z,20.23
2022-11-13T20:59:49.472Z,20.16
2022-11-13T21:06:17.601Z,20.12
2022-11-13T21:12:49.829Z,20.18
2022-11-13T21:19:13.395Z,20.13
2022-11-13T21:25:38.408Z,20.12
2022-11-13T21:32:10.366Z,20.12
2022-11-13T21:38:41.965Z,20.1
2022-11-13T21:45:09.608Z,20.11
2022-11-13T21:51:39.728Z,20.08
2022-11-13T21:58:04.461Z,20.1
2022-11-13T22:04:35.579Z,20.1
2022-11-13T22:11:10.436Z,20.09
2022-11-13T22:17:37.902Z,20.08
2022-11-13T22:24:20.597Z,20.06
2022-11-13T22:30:45.833Z,20.12
2022-11-13T22:37:19.834Z,20.12
2022-11-13T22:43:53.547Z,20.2
2022-11-13T22:50:16.484Z,20.21
2022-11-13T22:56:48.430Z,20.16
2022-11-13T23:03:15.557Z,20.12
2022-11-13T23:09:47.507Z,20.13
2022-11-13T23:16:19.581Z,20.16
2022-11-13T23:22:47.494Z,20.09
2022-11-13T23:29:11.511Z,20.12
2022-11-13T23:35:47.767Z,20.17
2022-11-13T23:42:12.613Z,20.15
2022-11-13T23:48:41.552Z,20.16
2022-11-13T23:55:02.518Z,20.14
